createdAt,value
2022-10-14T00:01:23.920Z,19.27
2022-10-14T00:04:03.595Z,18.73
2022-10-14T00:06:33.869Z,19.95
2022-10-14T00:09:06.690Z,20.30
2022-10-14T00:11:37.615Z,17.08
2022-10-14T00:14:09.292Z,16.13
2022-10-14T00:16:40.385Z,15.07
2022-10-14T00:19:11.617Z,19.10
2022-10-14T00:21:42.777Z,18.65
2022-10-14T00:24:13.442Z,19.25
2022-10-14T00:29:13.855Z,19.25
2022-10-14T00:31:42.387Z,16.65
2022-10-14T00:34:13.227Z,20.85
2022-10-14T00:36:41.393Z,18.42
2022-10-14T00:39:11.698Z,16.00
2022-10-14T00:41:40.706Z,15.27
2022-10-14T00:44:11.523Z,16.50
2022-10-14T00:46:44.654Z,18.60
2022-10-14T00:49:22.397Z,18.25
2022-10-14T00:52:10.981Z,18.27
2022-10-14T00:54:44.079Z,15.07
2022-10-14T00:57:12.409Z,19.17
2022-10-14T00:59:40.490Z,19.15
2022-10-14T01:02:08.597Z,15.88
2022-10-14T01:04:41.173Z,15.52
2022-10-14T01:07:28.858Z,18.52
2022-10-14T01:10:22.972Z,14.55
2022-10-14T01:13:25.016Z,15.80
2022-10-14T01:16:10.903Z,17.13
2022-10-14T01:19:20.385Z,14.73
2022-10-14T01:22:00.554Z,21.45
2022-10-14T01:24:51.429Z,17.35
2022-10-14T01:30:09.927Z,13.20
2022-10-14T01:32:50.778Z,14.95
2022-10-14T01:35:27.694Z,14.43
2022-10-14T01:38:28.088Z,14.65
2022-10-14T01:41:23.209Z,18.00
2022-10-14T01:43:55.237Z,18.75
2022-10-14T01:46:25.857Z,15.55
2022-10-14T01:49:07.131Z,17.63
2022-10-14T01:51:46.296Z,15.10
2022-10-14T01:54:30.790Z,19.98
2022-10-14T01:57:02.490Z,17.92
2022-10-14T01:59:33.223Z,15.02
2022-10-14T02:02:01.068Z,17.42
2022-10-14T02:04:29.672Z,18.85
2022-10-14T02:07:06.410Z,13.05
2022-10-14T02:10:03.494Z,19.80
2022-10-14T02:12:59.799Z,19.00
2022-10-14T02:15:38.361Z,12.68
2022-10-14T02:18:13.597Z,14.20
2022-10-14T02:20:48.271Z,16.75
2022-10-14T02:23:42.979Z,13.40
2022-10-14T02:26:11.415Z,14.02
2022-10-14T02:28:41.575Z,16.33
2022-10-14T02:31:14.912Z,14.60
2022-10-14T02:33:51.770Z,12.07
2022-10-14T02:36:23.255Z,17.27
2022-10-14T02:38:54.365Z,14.70
2022-10-14T02:41:25.926Z,13.25
2022-10-14T02:43:53.994Z,17.08
2022-10-14T02:46:22.984Z,14.55
2022-10-14T02:48:50.947Z,14.55
2022-10-14T02:51:20.177Z,16.75
2022-10-14T02:53:47.986Z,14.35
2022-10-14T02:56:17.410Z,17.48
2022-10-14T02:58:45.511Z,14.20
2022-10-14T03:01:13.221Z,16.02
2022-10-14T03:03:41.101Z,14.35
2022-10-14T03:06:09.376Z,14.45
2022-10-14T03:08:38.377Z,18.33
2022-10-14T03:11:09.257Z,17.52
2022-10-14T03:13:37.233Z,13.60
2022-10-14T03:16:06.334Z,17.60
2022-10-14T03:18:39.544Z,19.27
2022-10-14T03:21:17.395Z,20.65
2022-10-14T03:23:45.270Z,27.58
2022-10-14T03:26:14.265Z,15.98
2022-10-14T03:28:46.809Z,20.83
2022-10-14T03:31:22.513Z,19.65
2022-10-14T03:34:01.446Z,17.10
2022-10-14T03:36:30.503Z,19.27
2022-10-14T03:38:58.794Z,19.25
2022-10-14T03:41:36.031Z,17.10
2022-10-14T03:44:03.951Z,16.60
2022-10-14T03:46:33.679Z,17.58
2022-10-14T03:49:02.552Z,15.00
2022-10-14T03:51:30.769Z,17.60
2022-10-14T03:54:09.306Z,18.83
2022-10-14T03:56:37.164Z,18.15
2022-10-14T03:59:05.997Z,22.02
2022-10-14T04:01:33.765Z,17.13
2022-10-14T04:04:23.895Z,19.77
2022-10-14T04:06:51.764Z,17.70
2022-10-14T04:09:21.645Z,14.75
2022-10-14T04:11:50.084Z,12.98
2022-10-14T04:14:47.172Z,18.30
2022-10-14T04:17:15.992Z,17.42
2022-10-14T04:19:44.697Z,21.75
2022-10-14T04:22:13.419Z,20.13
2022-10-14T04:24:42.636Z,19.10
2022-10-14T04:27:10.623Z,23.27
2022-10-14T04:29:48.653Z,19.13
2022-10-14T04:32:24.569Z,17.52
2022-10-14T04:34:55.180Z,18.77
2022-10-14T04:37:26.242Z,17.67
2022-10-14T04:40:17.646Z,21.00
2022-10-14T04:42:48.012Z,17.48
2022-10-14T04:45:22.615Z,29.83
2022-10-14T04:47:56.602Z,26.95
2022-10-14T04:50:25.896Z,25.50
2022-10-14T04:53:29.260Z,22.10
2022-10-14T04:56:11.415Z,25.88
2022-10-14T04:58:49.557Z,20.55
2022-10-14T05:01:18.841Z,24.58
2022-10-14T05:03:48.562Z,25.17
2022-10-14T05:06:18.481Z,27.13
2022-10-14T05:11:17.859Z,28.05
2022-10-14T05:13:52.186Z,25.00
2022-10-14T05:16:20.429Z,22.55
2022-10-14T05:18:49.416Z,20.92
2022-10-14T05:21:17.174Z,22.55
2022-10-14T05:24:04.064Z,27.60
2022-10-14T05:26:34.623Z,21.52
2022-10-14T05:29:06.757Z,21.27
2022-10-14T05:31:34.533Z,25.60
2022-10-14T05:34:12.516Z,26.50
2022-10-14T05:36:41.179Z,23.70
2022-10-14T05:39:10.478Z,18.98
2022-10-14T05:41:39.805Z,20.95
2022-10-14T05:44:08.171Z,23.58
2022-10-14T05:46:36.432Z,19.98
2022-10-14T05:49:06.290Z,20.98
2022-10-14T05:51:38.441Z,27.70
2022-10-14T05:54:16.222Z,22.23
2022-10-14T05:56:45.246Z,21.25
2022-10-14T05:59:13.442Z,28.10
2022-10-14T06:01:43.388Z,25.25
2022-10-14T06:04:21.021Z,24.55
2022-10-14T06:06:49.266Z,25.55
2022-10-14T06:09:17.900Z,19.10
2022-10-14T06:11:45.991Z,25.15
2022-10-14T06:14:13.915Z,27.50
2022-10-14T06:16:42.149Z,24.98
2022-10-14T06:19:09.965Z,26.02
2022-10-14T06:21:38.204Z,22.92
2022-10-14T06:24:06.558Z,25.67
2022-10-14T06:26:34.428Z,27.83
2022-10-14T06:29:02.395Z,25.77
2022-10-14T06:31:32.440Z,23.50
2022-10-14T06:34:00.998Z,27.55
2022-10-14T06:36:28.861Z,30.70
2022-10-14T06:38:56.971Z,22.27
2022-10-14T06:41:25.002Z,26.30
2022-10-14T06:43:52.974Z,24.50
2022-10-14T06:46:21.063Z,26.25
2022-10-14T06:48:50.399Z,30.38
2022-10-14T06:51:18.438Z,28.95
2022-10-14T06:53:46.596Z,28.55
2022-10-14T06:56:14.879Z,27.65
2022-10-14T06:58:42.797Z,31.30
2022-10-14T07:01:10.859Z,28.08
2022-10-14T07:03:39.550Z,28.35
2022-10-14T07:06:08.421Z,29.95
2022-10-14T07:08:36.514Z,28.60
2022-10-14T07:11:05.560Z,26.45
2022-10-14T07:13:34.844Z,31.70
2022-10-14T07:16:03.438Z,32.38
2022-10-14T07:18:32.200Z,26.02
2022-10-14T07:21:06.525Z,35.47
2022-10-14T07:23:34.544Z,33.95
2022-10-14T07:26:02.447Z,28.00
2022-10-14T07:28:30.468Z,31.85
2022-10-14T07:30:59.711Z,31.00
2022-10-14T07:33:27.930Z,29.25
2022-10-14T07:35:56.486Z,26.52
2022-10-14T07:38:24.471Z,23.10
2022-10-14T07:41:04.810Z,28.75
2022-10-14T07:43:34.746Z,34.22
2022-10-14T07:46:05.400Z,24.67
2022-10-14T07:48:45.242Z,27.25
2022-10-14T07:51:21.276Z,27.95
2022-10-14T07:53:50.359Z,30.20
2022-10-14T07:56:18.092Z,32.35
2022-10-14T07:58:46.806Z,29.52
2022-10-14T08:01:16.301Z,28.13
2022-10-14T08:03:45.130Z,25.95
2022-10-14T08:06:13.729Z,25.88
2022-10-14T08:08:42.131Z,25.60
2022-10-14T08:11:13.701Z,29.70
2022-10-14T08:13:45.268Z,30.70
2022-10-14T08:16:41.675Z,27.20
2022-10-14T08:19:14.617Z,25.77
2022-10-14T08:21:44.172Z,25.30
2022-10-14T08:24:11.910Z,28.50
2022-10-14T08:26:49.317Z,25.45
2022-10-14T08:29:17.863Z,23.48
2022-10-14T08:31:46.608Z,23.98
2022-10-14T08:34:14.650Z,23.45
2022-10-14T08:36:42.704Z,24.80
2022-10-14T08:41:59.967Z,25.73
2022-10-14T08:44:45.456Z,22.92
2022-10-14T08:47:16.248Z,24.98
2022-10-14T08:50:04.945Z,29.90
2022-10-14T08:52:43.574Z,25.98
2022-10-14T08:55:38.341Z,24.25
2022-10-14T08:58:13.383Z,26.08
2022-10-14T09:00:43.587Z,25.73
2022-10-14T09:03:23.218Z,23.77
2022-10-14T09:05:58.940Z,25.17
2022-10-14T09:08:46.868Z,28.88
2022-10-14T09:11:23.279Z,24.70
2022-10-14T09:14:00.519Z,27.05
2022-10-14T09:16:40.001Z,23.73
2022-10-14T09:19:21.751Z,25.33
2022-10-14T09:21:55.105Z,43.65
2022-10-14T09:24:28.601Z,25.50
2022-10-14T09:27:05.576Z,30.98
2022-10-14T09:29:47.637Z,25.23
2022-10-14T09:32:30.279Z,25.48
2022-10-14T09:34:59.331Z,24.30
2022-10-14T09:37:37.684Z,24.92
2022-10-14T09:40:14.480Z,22.45
2022-10-14T09:42:51.612Z,23.33
2022-10-14T09:45:25.088Z,26.63
2022-10-14T09:48:04.276Z,22.38
2022-10-14T09:50:43.746Z,25.75
2022-10-14T09:53:26.589Z,28.17
2022-10-14T09:56:00.930Z,28.23
2022-10-14T09:58:55.491Z,25.35
2022-10-14T10:01:54.033Z,25.25
2022-10-14T10:04:47.623Z,24.13
2022-10-14T10:07:35.398Z,22.48
2022-10-14T10:10:21.491Z,23.92
2022-10-14T10:12:49.756Z,21.77
2022-10-14T10:15:21.684Z,21.08
2022-10-14T10:17:50.721Z,25.73
2022-10-14T10:20:18.632Z,24.95
2022-10-14T10:22:47.129Z,22.88
2022-10-14T10:25:15.651Z,21.73
2022-10-14T10:27:49.830Z,23.65
2022-10-14T10:30:18.013Z,23.45
2022-10-14T10:32:48.059Z,23.17
2022-10-14T10:35:21.070Z,21.53
2022-10-14T10:38:21.338Z,23.27
2022-10-14T10:41:22.191Z,21.13
2022-10-14T10:46:45.555Z,22.05
2022-10-14T10:49:34.596Z,24.08
2022-10-14T10:52:23.914Z,22.10
2022-10-14T10:55:18.421Z,25.55
2022-10-14T10:58:13.740Z,22.05
2022-10-14T11:01:10.551Z,24.35
2022-10-14T11:03:50.647Z,22.23
2022-10-14T11:06:43.499Z,17.63
2022-10-14T11:10:05.999Z,22.58
2022-10-14T11:12:42.879Z,19.10
2022-10-14T11:15:22.062Z,21.65
2022-10-14T11:18:00.552Z,21.92
2022-10-14T11:21:31.202Z,24.45
2022-10-14T11:24:21.957Z,24.38
2022-10-14T11:27:03.475Z,21.83
2022-10-14T11:29:58.420Z,21.38
2022-10-14T11:32:34.767Z,21.55
2022-10-14T11:35:25.200Z,22.52
2022-10-14T11:37:52.911Z,22.73
2022-10-14T11:41:02.153Z,28.02
2022-10-14T11:43:33.785Z,26.40
2022-10-14T11:46:12.906Z,24.90
2022-10-14T11:49:21.059Z,20.10
2022-10-14T11:51:51.364Z,23.48
2022-10-14T11:54:41.432Z,21.83
2022-10-14T11:57:12.521Z,25.20
2022-10-14T12:03:17.833Z,23.48
2022-10-14T12:05:56.894Z,24.73
2022-10-14T12:08:35.860Z,22.33
2022-10-14T12:11:15.764Z,25.67
2022-10-14T12:13:47.917Z,25.00
2022-10-14T12:16:24.298Z,28.75
2022-10-14T12:18:57.127Z,26.83
2022-10-14T12:21:37.835Z,26.35
2022-10-14T12:24:17.154Z,25.92
2022-10-14T12:26:54.521Z,24.70
2022-10-14T12:29:32.183Z,26.63
2022-10-14T12:32:07.222Z,28.15
2022-10-14T12:34:46.545Z,25.50
2022-10-14T12:37:35.452Z,25.02
2022-10-14T12:40:03.807Z,24.95
2022-10-14T12:42:39.088Z,24.48
2022-10-14T12:45:22.871Z,29.90
2022-10-14T12:48:08.058Z,28.63
2022-10-14T12:50:47.150Z,29.27
2022-10-14T12:53:30.988Z,23.67
2022-10-14T12:56:01.857Z,24.35
2022-10-14T12:58:35.340Z,23.60
2022-10-14T13:01:08.242Z,25.92
2022-10-14T13:03:47.354Z,23.88
2022-10-14T13:06:27.703Z,23.17
2022-10-14T13:09:14.000Z,25.27
2022-10-14T13:11:51.802Z,25.33
2022-10-14T13:14:28.004Z,27.05
2022-10-14T13:16:57.912Z,26.00
2022-10-14T13:19:34.919Z,24.58
2022-10-14T13:22:31.584Z,24.42
2022-10-14T13:25:15.034Z,27.50
2022-10-14T13:28:01.170Z,23.63
2022-10-14T13:31:06.077Z,26.15
2022-10-14T13:33:54.221Z,26.48
2022-10-14T13:36:36.059Z,26.85
2022-10-14T13:39:05.346Z,29.67
2022-10-14T13:41:34.871Z,27.58
2022-10-14T13:44:03.237Z,32.88
2022-10-14T13:46:47.736Z,26.08
2022-10-14T13:49:21.518Z,26.25
2022-10-14T13:52:05.970Z,24.52
2022-10-14T13:54:34.274Z,37.70
2022-10-14T14:02:51.784Z,23.30
2022-10-14T14:05:26.913Z,26.20
2022-10-14T14:11:15.130Z,24.80
2022-10-14T14:13:54.562Z,25.13
2022-10-14T14:16:29.302Z,31.45
2022-10-14T14:19:13.045Z,30.95
2022-10-14T14:21:40.940Z,35.30
2022-10-14T14:24:23.048Z,31.90
2022-10-14T14:26:55.602Z,42.60
2022-10-14T14:29:29.088Z,49.90
2022-10-14T14:32:06.679Z,27.67
2022-10-14T14:34:37.871Z,34.75
2022-10-14T14:37:25.095Z,29.55
2022-10-14T14:40:00.508Z,32.42
2022-10-14T14:42:33.256Z,34.83
2022-10-14T14:45:06.085Z,39.83
2022-10-14T14:47:34.469Z,62.08
2022-10-14T14:50:29.069Z,40.13
2022-10-14T14:52:52.404Z,29.40
2022-10-14T14:55:45.383Z,27.05
2022-10-14T14:58:26.816Z,96.72
2022-10-14T15:00:55.689Z,49.38
2022-10-14T15:03:30.186Z,32.42
2022-10-14T15:06:02.095Z,30.35
2022-10-14T15:24:16.347Z,31.45
2022-10-14T15:26:46.875Z,31.00
2022-10-14T15:32:21.483Z,35.60
2022-10-14T15:35:00.435Z,42.72
2022-10-14T15:37:29.135Z,62.00
2022-10-14T15:40:10.390Z,50.10
2022-10-14T15:42:39.229Z,49.63
2022-10-14T15:45:09.019Z,66.00
2022-10-14T15:47:38.198Z,50.72
2022-10-14T15:50:18.198Z,47.25
2022-10-14T15:53:00.206Z,42.17
2022-10-14T15:55:30.305Z,59.25
2022-10-14T15:58:00.103Z,74.38
2022-10-14T16:00:28.128Z,56.15
2022-10-14T16:03:10.200Z,53.63
2022-10-14T16:05:38.764Z,47.10
2022-10-14T16:08:16.573Z,45.50
2022-10-14T16:10:46.172Z,52.75
2022-10-14T16:13:14.537Z,60.00
2022-10-14T16:15:49.867Z,54.58
2022-10-14T16:18:21.703Z,59.53
2022-10-14T16:20:52.878Z,56.50
2022-10-14T16:23:29.698Z,57.35
2022-10-14T16:26:00.502Z,49.25
2022-10-14T16:28:31.594Z,51.40
2022-10-14T16:30:59.799Z,40.58
2022-10-14T16:33:27.970Z,42.05
2022-10-14T16:35:57.881Z,42.88
2022-10-14T16:38:28.505Z,41.15
2022-10-14T16:41:03.002Z,40.15
2022-10-14T16:43:31.534Z,74.50
2022-10-14T16:46:01.305Z,61.35
2022-10-14T16:48:29.865Z,47.72
2022-10-14T16:51:00.253Z,47.90
2022-10-14T16:53:40.727Z,44.88
2022-10-14T16:56:40.099Z,38.42
2022-10-14T16:59:10.537Z,32.92
2022-10-14T17:07:00.267Z,33.10
2022-10-14T17:09:28.232Z,35.13
2022-10-14T17:11:59.840Z,40.47
2022-10-14T17:14:31.345Z,36.42
2022-10-14T17:17:00.249Z,35.42
2022-10-14T17:19:32.440Z,38.20
2022-10-14T17:22:03.382Z,39.13
2022-10-14T17:24:49.027Z,40.42
2022-10-14T17:27:19.813Z,37.83
2022-10-14T17:29:50.740Z,37.65
2022-10-14T17:32:19.204Z,43.38
2022-10-14T17:34:47.330Z,45.60
2022-10-14T17:37:15.802Z,53.03
2022-10-14T17:39:48.054Z,51.33
2022-10-14T17:42:21.023Z,47.28
2022-10-14T17:44:51.113Z,57.78
2022-10-14T17:47:19.563Z,58.28
2022-10-14T17:49:49.123Z,57.30
2022-10-14T17:52:17.306Z,49.42
2022-10-14T17:54:47.318Z,42.90
2022-10-14T17:57:18.910Z,43.03
2022-10-14T18:02:25.999Z,44.35
2022-10-14T18:04:56.649Z,49.20
2022-10-14T18:07:26.722Z,44.38
2022-10-14T18:09:54.889Z,45.40
2022-10-14T18:12:24.413Z,48.67
2022-10-14T18:14:52.418Z,49.05
2022-10-14T18:17:27.022Z,53.67
2022-10-14T18:19:57.753Z,50.85
2022-10-14T18:22:25.706Z,59.35
2022-10-14T18:24:54.342Z,69.60
2022-10-14T18:27:22.611Z,79.22
2022-10-14T18:29:51.200Z,71.32
2022-10-14T18:32:19.306Z,55.60
2022-10-14T18:34:49.387Z,56.30
2022-10-14T18:37:17.793Z,60.53
2022-10-14T18:39:46.785Z,58.45
2022-10-14T18:42:20.784Z,49.80
2022-10-14T18:44:52.391Z,50.15
2022-10-14T18:47:20.583Z,57.20
2022-10-14T18:49:49.936Z,60.90
2022-10-14T18:52:21.884Z,62.60
2022-10-14T18:54:49.939Z,59.58
2022-10-14T18:57:19.369Z,56.80
2022-10-14T18:59:53.708Z,67.30
2022-10-14T19:02:36.059Z,68.72
2022-10-14T19:05:04.517Z,71.20
2022-10-14T19:10:07.335Z,72.97
2022-10-14T19:12:44.953Z,71.68
2022-10-14T19:15:13.276Z,75.45
2022-10-14T19:17:43.062Z,67.43
2022-10-14T19:20:10.902Z,60.55
2022-10-14T19:22:44.997Z,70.47
2022-10-14T19:25:16.848Z,67.60
2022-10-14T19:27:44.947Z,63.40
2022-10-14T19:30:13.309Z,65.10
2022-10-14T19:32:41.193Z,63.40
2022-10-14T19:35:14.636Z,58.08
2022-10-14T19:37:42.400Z,64.35
2022-10-14T19:40:16.085Z,66.65
2022-10-14T19:42:46.011Z,57.40
2022-10-14T19:45:19.483Z,60.35
2022-10-14T19:47:50.482Z,62.05
2022-10-14T19:50:21.044Z,61.35
2022-10-14T19:52:48.751Z,65.85
2022-10-14T19:55:19.284Z,65.82
2022-10-14T19:57:49.249Z,62.28
2022-10-14T20:00:17.598Z,62.45
2022-10-14T20:02:45.935Z,61.83
2022-10-14T20:05:13.813Z,62.20
2022-10-14T20:07:47.712Z,63.97
2022-10-14T20:10:16.207Z,64.47
2022-10-14T20:12:44.119Z,65.65
2022-10-14T20:15:14.635Z,65.78
2022-10-14T20:17:42.553Z,66.57
2022-10-14T20:20:15.246Z,67.32
2022-10-14T20:22:49.346Z,63.78
2022-10-14T20:25:20.187Z,62.80
2022-10-14T20:27:51.154Z,70.68
2022-10-14T20:30:26.497Z,65.25
2022-10-14T20:32:57.719Z,68.07
2022-10-14T20:37:53.317Z,72.22
2022-10-14T20:40:28.302Z,71.95
2022-10-14T20:42:57.316Z,85.90
2022-10-14T20:45:32.758Z,119.28
2022-10-14T20:48:05.821Z,72.90
2022-10-14T20:50:33.935Z,70.10
2022-10-14T20:53:05.353Z,65.45
2022-10-14T20:55:33.649Z,68.00
2022-10-14T20:58:01.667Z,70.43
2022-10-14T21:00:29.555Z,68.65
2022-10-14T21:02:58.946Z,70.20
2022-10-14T21:05:26.799Z,71.93
2022-10-14T21:07:57.170Z,62.72
2022-10-14T21:10:25.811Z,64.55
2022-10-14T21:12:55.879Z,68.03
2022-10-14T21:15:27.112Z,66.70
2022-10-14T21:17:57.636Z,66.60
2022-10-14T21:20:25.731Z,68.40
2022-10-14T21:22:54.040Z,66.05
2022-10-14T21:25:22.030Z,63.60
2022-10-14T21:27:50.761Z,68.72
2022-10-14T21:30:19.383Z,69.22
2022-10-14T21:32:49.779Z,68.68
2022-10-14T21:35:18.190Z,71.22
2022-10-14T21:37:49.917Z,72.68
2022-10-14T21:40:30.273Z,72.50
2022-10-14T21:42:57.931Z,67.53
2022-10-14T21:45:25.905Z,66.13
2022-10-14T21:47:55.728Z,65.13
2022-10-14T21:50:23.470Z,72.43
2022-10-14T21:52:54.261Z,63.72
2022-10-14T21:55:21.941Z,68.15
2022-10-14T21:57:51.683Z,68.55
2022-10-14T22:00:19.917Z,72.60
2022-10-14T22:02:47.787Z,66.30
2022-10-14T22:05:15.848Z,71.18
2022-10-14T22:07:44.204Z,63.58
2022-10-14T22:10:40.869Z,70.45
2022-10-14T22:13:10.592Z,64.78
2022-10-14T22:15:45.290Z,66.82
2022-10-14T22:18:24.494Z,64.60
2022-10-14T22:23:27.816Z,65.82
2022-10-14T22:25:59.105Z,66.80
2022-10-14T22:28:26.942Z,67.93
2022-10-14T22:31:11.309Z,65.80
2022-10-14T22:33:43.601Z,64.78
2022-10-14T22:36:23.713Z,65.32
2022-10-14T22:38:56.672Z,66.40
2022-10-14T22:41:32.367Z,63.92
2022-10-14T22:44:02.040Z,67.82
2022-10-14T22:46:32.902Z,71.95
2022-10-14T22:49:02.198Z,71.05
2022-10-14T22:51:37.559Z,65.40
2022-10-14T22:54:05.764Z,74.35
2022-10-14T22:56:40.488Z,74.05
2022-10-14T22:59:11.114Z,64.22
2022-10-14T23:01:40.664Z,73.78
2022-10-14T23:04:09.595Z,75.25
2022-10-14T23:06:37.660Z,67.78
2022-10-14T23:09:07.665Z,68.30
2022-10-14T23:11:35.590Z,73.45
2022-10-14T23:14:07.199Z,73.10
2022-10-14T23:16:38.954Z,69.68
2022-10-14T23:19:06.901Z,73.22
2022-10-14T23:21:37.142Z,67.07
2022-10-14T23:26:41.214Z,74.68
2022-10-14T23:31:42.457Z,73.03
2022-10-14T23:34:17.488Z,69.50
2022-10-14T23:36:47.912Z,62.05
2022-10-14T23:39:17.588Z,69.32
2022-10-14T23:41:45.439Z,65.88
2022-10-14T23:44:17.037Z,65.78
2022-10-14T23:46:46.798Z,66.97
2022-10-14T23:49:25.878Z,70.60
2022-10-14T23:52:05.044Z,69.85
2022-10-14T23:54:36.290Z,67.00
2022-10-14T23:57:04.523Z,67.72
2022-10-14T23:59:32.372Z,65.53
